sensor_id;sensor_type;location;lat;lon;timestamp;pressure;altitude;pressure_sealevel;temperature
22269;BMP280;11303;50.772;19.670;2022-12-16T00:00:28;98458.53;;;-3.52
22269;BMP280;11303;50.772;19.670;2022-12-16T00:02:29;98462.94;;;-3.52
22269;BMP280;11303;50.772;19.670;2022-12-16T00:04:31;98444.06;;;-3.53
22269;BMP280;11303;50.772;19.670;2022-12-16T00:06:33;98440.69;;;-3.53
22269;BMP280;11303;50.772;19.670;2022-12-16T00:08:37;98435.53;;;-3.53
22269;BMP280;11303;50.772;19.670;2022-12-16T00:10:38;98457.03;;;-3.53
22269;BMP280;11303;50.772;19.670;2022-12-16T00:12:55;98453.66;;;-3.53
22269;BMP280;11303;50.772;19.670;2022-12-16T00:14:56;98452.44;;;-3.56
22269;BMP280;11303;50.772;19.670;2022-12-16T00:16:58;98439.78;;;-3.57
22269;BMP280;11303;50.772;19.670;2022-12-16T00:18:59;98444.22;;;-3.58
22269;BMP280;11303;50.772;19.670;2022-12-16T00:21:02;98444.22;;;-3.58
22269;BMP280;11303;50.772;19.670;2022-12-16T00:23:03;98446.03;;;-3.58
22269;BMP280;11303;50.772;19.670;2022-12-16T00:25:05;98436.72;;;-3.59
22269;BMP280;11303;50.772;19.670;2022-12-16T00:27:07;98445.59;;;-3.60
22269;BMP280;11303;50.772;19.670;2022-12-16T00:29:08;98423.31;;;-3.61
22269;BMP280;11303;50.772;19.670;2022-12-16T00:31:11;98421.78;;;-3.62
22269;BMP280;11303;50.772;19.670;2022-12-16T00:33:13;98424.84;;;-3.60
22269;BMP280;11303;50.772;19.670;2022-12-16T00:35:14;98432.63;;;-3.60
22269;BMP280;11303;50.772;19.670;2022-12-16T00:37:16;98444.03;;;-3.61
22269;BMP280;11303;50.772;19.670;2022-12-16T00:39:17;98447.88;;;-3.59
22269;BMP280;11303;50.772;19.670;2022-12-16T00:41:19;98448.91;;;-3.60
22269;BMP280;11303;50.772;19.670;2022-12-16T00:43:21;98458.97;;;-3.58
22269;BMP280;11303;50.772;19.670;2022-12-16T00:45:23;98463.41;;;-3.59
22269;BMP280;11303;50.772;19.670;2022-12-16T00:47:24;98452.28;;;-3.59
22269;BMP280;11303;50.772;19.670;2022-12-16T00:49:26;98430.78;;;-3.60
22269;BMP280;11303;50.772;19.670;2022-12-16T00:51:27;98431.56;;;-3.59
22269;BMP280;11303;50.772;19.670;2022-12-16T00:53:29;98438.25;;;-3.58
22269;BMP280;11303;50.772;19.670;2022-12-16T00:55:31;98453.06;;;-3.59
22269;BMP280;11303;50.772;19.670;2022-12-16T00:57:33;98459.75;;;-3.58
22269;BMP280;11303;50.772;19.670;2022-12-16T00:59:34;98439.78;;;-3.57
22269;BMP280;11303;50.772;19.670;2022-12-16T01:01:36;98443.44;;;-3.58
22269;BMP280;11303;50.772;19.670;2022-12-16T01:03:37;98426.06;;;-3.58
22269;BMP280;11303;50.772;19.670;2022-12-16T01:05:39;98415.22;;;-3.60
22269;BMP280;11303;50.772;19.670;2022-12-16T01:07:41;98418.59;;;-3.59
22269;BMP280;11303;50.772;19.670;2022-12-16T01:09:43;98415.69;;;-3.58
22269;BMP280;11303;50.772;19.670;2022-12-16T01:11:44;98416.47;;;-3.57
22269;BMP280;11303;50.772;19.670;2022-12-16T01:13:49;98425.00;;;-3.57
22269;BMP280;11303;50.772;19.670;2022-12-16T01:15:52;98425.00;;;-3.57
22269;BMP280;11303;50.772;19.670;2022-12-16T01:17:54;98412.81;;;-3.56
22269;BMP280;11303;50.772;19.670;2022-12-16T01:19:56;98397.25;;;-3.56
22269;BMP280;11303;50.772;19.670;2022-12-16T01:21:57;98395.75;;;-3.57
22269;BMP280;11303;50.772;19.670;2022-12-16T01:23:59;98394.66;;;-3.56
22269;BMP280;11303;50.772;19.670;2022-12-16T01:26:00;98388.09;;;-3.54
22269;BMP280;11303;50.772;19.670;2022-12-16T01:28:02;98389.66;;;-3.53
22269;BMP280;11303;50.772;19.670;2022-12-16T01:30:04;98385.81;;;-3.55
22269;BMP280;11303;50.772;19.670;2022-12-16T01:32:16;98381.09;;;-3.53
22269;BMP280;11303;50.772;19.670;2022-12-16T01:34:18;98381.88;;;-3.53
22269;BMP280;11303;50.772;19.670;2022-12-16T01:36:19;98371.94;;;-3.51
22269;BMP280;11303;50.772;19.670;2022-12-16T01:38:21;98383.09;;;-3.50
22269;BMP280;11303;50.772;19.670;2022-12-16T01:40:23;98384.16;;;-3.51
22269;BMP280;11303;50.772;19.670;2022-12-16T01:42:25;98389.03;;;-3.50
22269;BMP280;11303;50.772;19.670;2022-12-16T01:44:32;98377.59;;;-3.49
22269;BMP280;11303;50.772;19.670;2022-12-16T01:46:35;98382.47;;;-3.47
22269;BMP280;11303;50.772;19.670;2022-12-16T01:50:43;98366.16;;;-3.48
22269;BMP280;11303;50.772;19.670;2022-12-16T01:52:49;98362.03;;;-3.49
22269;BMP280;11303;50.772;19.670;2022-12-16T01:54:57;98366.91;;;-3.47
22269;BMP280;11303;50.772;19.670;2022-12-16T01:57:09;98361.72;;;-3.47
22269;BMP280;11303;50.772;19.670;2022-12-16T01:59:13;98353.97;;;-3.47
22269;BMP280;11303;50.772;19.670;2022-12-16T02:01:17;98365.84;;;-3.46
22269;BMP280;11303;50.772;19.670;2022-12-16T02:03:18;98353.97;;;-3.47
22269;BMP280;11303;50.772;19.670;2022-12-16T02:05:20;98352.88;;;-3.46
22269;BMP280;11303;50.772;19.670;2022-12-16T02:07:23;98369.97;;;-3.45
22269;BMP280;11303;50.772;19.670;2022-12-16T02:09:24;98362.19;;;-3.45
22269;BMP280;11303;50.772;19.670;2022-12-16T02:18:41;98359.78;;;-3.42
22269;BMP280;11303;50.772;19.670;2022-12-16T02:21:11;98339.34;;;-3.43
22269;BMP280;11303;50.772;19.670;2022-12-16T02:25:57;98325.91;;;-3.45
22269;BMP280;11303;50.772;19.670;2022-12-16T02:32:52;98308.09;;;-3.47
22269;BMP280;11303;50.772;19.670;2022-12-16T02:35:13;98310.66;;;-3.47
22269;BMP280;11303;50.772;19.670;2022-12-16T02:37:26;98311.41;;;-3.46
22269;BMP280;11303;50.772;19.670;2022-12-16T02:39:49;98300.47;;;-3.43
22269;BMP280;11303;50.772;19.670;2022-12-16T02:42:04;98292.84;;;-3.48
22269;BMP280;11303;50.772;19.670;2022-12-16T02:44:09;98287.66;;;-3.48
22269;BMP280;11303;50.772;19.670;2022-12-16T02:46:11;98295.44;;;-3.48
22269;BMP280;11303;50.772;19.670;2022-12-16T02:48:13;98300.16;;;-3.50
22269;BMP280;11303;50.772;19.670;2022-12-16T02:50:19;98301.66;;;-3.49
22269;BMP280;11303;50.772;19.670;2022-12-16T02:52:24;98293.88;;;-3.49
22269;BMP280;11303;50.772;19.670;2022-12-16T02:54:26;98289.00;;;-3.51
22269;BMP280;11303;50.772;19.670;2022-12-16T03:03:05;98267.97;;;-3.49
22269;BMP280;11303;50.772;19.670;2022-12-16T03:05:24;98251.22;;;-3.52
22269;BMP280;11303;50.772;19.670;2022-12-16T03:07:27;98248.00;;;-3.49
22269;BMP280;11303;50.772;19.670;2022-12-16T03:09:33;98244.66;;;-3.49
22269;BMP280;11303;50.772;19.670;2022-12-16T03:11:39;98238.72;;;-3.50
22269;BMP280;11303;50.772;19.670;2022-12-16T03:13:47;98236.13;;;-3.50
22269;BMP280;11303;50.772;19.670;2022-12-16T03:15:52;98231.38;;;-3.48
22269;BMP280;11303;50.772;19.670;2022-12-16T03:17:54;98221.78;;;-3.47
22269;BMP280;11303;50.772;19.670;2022-12-16T03:20:22;98233.97;;;-3.48
22269;BMP280;11303;50.772;19.670;2022-12-16T03:22:28;98238.09;;;-3.47
22269;BMP280;11303;50.772;19.670;2022-12-16T03:24:32;98231.06;;;-3.46
22269;BMP280;11303;50.772;19.670;2022-12-16T03:26:39;98244.03;;;-3.46
22269;BMP280;11303;50.772;19.670;2022-12-16T03:33:56;98226.84;;;-3.42
22269;BMP280;11303;50.772;19.670;2022-12-16T03:36:06;98225.59;;;-3.45
22269;BMP280;11303;50.772;19.670;2022-12-16T03:38:11;98232.03;;;-3.42
22269;BMP280;11303;50.772;19.670;2022-12-16T03:40:13;98233.06;;;-3.43
22269;BMP280;11303;50.772;19.670;2022-12-16T03:42:15;98228.66;;;-3.42
22269;BMP280;11303;50.772;19.670;2022-12-16T03:44:17;98225.75;;;-3.41
22269;BMP280;11303;50.772;19.670;2022-12-16T03:46:19;98226.84;;;-3.42
22269;BMP280;11303;50.772;19.670;2022-12-16T03:48:23;98226.84;;;-3.42
22269;BMP280;11303;50.772;19.670;2022-12-16T03:50:32;98221.19;;;-3.44
22269;BMP280;11303;50.772;19.670;2022-12-16T03:52:34;98218.28;;;-3.42
22269;BMP280;11303;50.772;19.670;2022-12-16T03:54:35;98218.28;;;-3.42
22269;BMP280;11303;50.772;19.670;2022-12-16T03:56:37;98210.84;;;-3.44
22269;BMP280;11303;50.772;19.670;2022-12-16T03:58:39;98217.06;;;-3.45
22269;BMP280;11303;50.772;19.670;2022-12-16T04:00:40;98206.69;;;-3.45
22269;BMP280;11303;50.772;19.670;2022-12-16T04:02:42;98202.75;;;-3.42
22269;BMP280;11303;50.772;19.670;2022-12-16T04:04:44;98205.66;;;-3.44
22269;BMP280;11303;50.772;19.670;2022-12-16T04:06:45;98205.03;;;-3.41
22269;BMP280;11303;50.772;19.670;2022-12-16T04:09:07;98193.16;;;-3.42
22269;BMP280;11303;50.772;19.670;2022-12-16T04:11:08;98205.03;;;-3.41
22269;BMP280;11303;50.772;19.670;2022-12-16T04:13:28;98183.38;;;-3.45
22269;BMP280;11303;50.772;19.670;2022-12-16T04:15:48;98182.59;;;-3.46
22269;BMP280;11303;50.772;19.670;2022-12-16T04:18:17;98191.88;;;-3.45
22269;BMP280;11303;50.772;19.670;2022-12-16T04:20:39;98171.97;;;-3.44
22269;BMP280;11303;50.772;19.670;2022-12-16T04:23:03;98177.13;;;-3.44
22269;BMP280;11303;50.772;19.670;2022-12-16T04:25:27;98165.69;;;-3.43
22269;BMP280;11303;50.772;19.670;2022-12-16T04:27:29;98170.88;;;-3.43
22269;BMP280;11303;50.772;19.670;2022-12-16T04:29:31;98182.31;;;-3.44
22269;BMP280;11303;50.772;19.670;2022-12-16T04:31:33;98176.84;;;-3.42
22269;BMP280;11303;50.772;19.670;2022-12-16T04:33:34;98177.13;;;-3.44
22269;BMP280;11303;50.772;19.670;2022-12-16T04:35:55;98171.97;;;-3.44
22269;BMP280;11303;50.772;19.670;2022-12-16T04:38:15;98171.66;;;-3.42
22269;BMP280;11303;50.772;19.670;2022-12-16T04:40:35;98175.91;;;-3.38
22269;BMP280;11303;50.772;19.670;2022-12-16T04:42:55;98170.41;;;-3.36
22269;BMP280;11303;50.772;19.670;2022-12-16T04:45:16;98161.13;;;-3.37
22269;BMP280;11303;50.772;19.670;2022-12-16T04:47:36;98159.25;;;-3.37
22269;BMP280;11303;50.772;19.670;2022-12-16T04:49:58;98160.97;;;-3.41
22269;BMP280;11303;50.772;19.670;2022-12-16T04:52:18;98170.25;;;-3.40
22269;BMP280;11303;50.772;19.670;2022-12-16T04:54:38;98165.22;;;-3.36
22269;BMP280;11303;50.772;19.670;2022-12-16T04:56:58;98158.22;;;-3.36
22269;BMP280;11303;50.772;19.670;2022-12-16T04:59:18;98170.88;;;-3.34
22269;BMP280;11303;50.772;19.670;2022-12-16T05:01:38;98167.50;;;-3.35
22269;BMP280;11303;50.772;19.670;2022-12-16T05:03:58;98183.19;;;-3.31
22269;BMP280;11303;50.772;19.670;2022-12-16T05:06:19;98183.94;;;-3.31
22269;BMP280;11303;50.772;19.670;2022-12-16T05:08:39;98191.09;;;-3.28
22269;BMP280;11303;50.772;19.670;2022-12-16T05:10:59;98189.28;;;-3.27
22269;BMP280;11303;50.772;19.670;2022-12-16T05:13:19;98186.53;;;-3.22
22269;BMP280;11303;50.772;19.670;2022-12-16T05:15:58;98184.34;;;-3.20
22269;BMP280;11303;50.772;19.670;2022-12-16T05:18:19;98185.88;;;-3.19
22269;BMP280;11303;50.772;19.670;2022-12-16T05:20:39;98193.34;;;-3.18
22269;BMP280;11303;50.772;19.670;2022-12-16T05:22:59;98186.66;;;-3.19
22269;BMP280;11303;50.772;19.670;2022-12-16T05:25:19;98175.84;;;-3.21
22269;BMP280;11303;50.772;19.670;2022-12-16T05:27:40;98183.63;;;-3.21
22269;BMP280;11303;50.772;19.670;2022-12-16T05:30:00;98179.94;;;-3.20
22269;BMP280;11303;50.772;19.670;2022-12-16T05:32:20;98185.75;;;-3.23
22269;BMP280;11303;50.772;19.670;2022-12-16T05:34:40;98176.88;;;-3.22
22269;BMP280;11303;50.772;19.670;2022-12-16T05:37:00;98163.34;;;-3.27
22269;BMP280;11303;50.772;19.670;2022-12-16T05:39:20;98160.63;;;-3.31
22269;BMP280;11303;50.772;19.670;2022-12-16T05:41:40;98145.06;;;-3.31
22269;BMP280;11303;50.772;19.670;2022-12-16T05:44:00;98139.44;;;-3.33
22269;BMP280;11303;50.772;19.670;2022-12-16T05:46:20;98135.00;;;-3.32
22269;BMP280;11303;50.772;19.670;2022-12-16T05:48:40;98135.78;;;-3.32
22269;BMP280;11303;50.772;19.670;2022-12-16T05:51:00;98133.19;;;-3.32
22269;BMP280;11303;50.772;19.670;2022-12-16T05:53:20;98134.38;;;-3.29
22269;BMP280;11303;50.772;19.670;2022-12-16T05:55:41;98129.97;;;-3.29
22269;BMP280;11303;50.772;19.670;2022-12-16T05:58:01;98129.50;;;-3.31
22269;BMP280;11303;50.772;19.670;2022-12-16T06:00:21;98120.69;;;-3.30
22269;BMP280;11303;50.772;19.670;2022-12-16T06:02:41;98118.09;;;-3.30
22269;BMP280;11303;50.772;19.670;2022-12-16T06:05:01;98120.69;;;-3.30
22269;BMP280;11303;50.772;19.670;2022-12-16T06:07:21;98116.69;;;-3.27
22269;BMP280;11303;50.772;19.670;2022-12-16T06:09:41;98117.88;;;-3.25
22269;BMP280;11303;50.772;19.670;2022-12-16T06:12:01;98133.91;;;-3.23
22269;BMP280;11303;50.772;19.670;2022-12-16T06:14:21;98130.22;;;-3.22
22269;BMP280;11303;50.772;19.670;2022-12-16T06:16:41;98119.84;;;-3.22
22269;BMP280;11303;50.772;19.670;2022-12-16T06:19:01;98120.31;;;-3.20
22269;BMP280;11303;50.772;19.670;2022-12-16T06:21:21;98128.53;;;-3.18
22269;BMP280;11303;50.772;19.670;2022-12-16T06:23:41;98131.13;;;-3.18
22269;BMP280;11303;50.772;19.670;2022-12-16T06:26:03;98138.75;;;-3.13
22269;BMP280;11303;50.772;19.670;2022-12-16T06:28:24;98136.59;;;-3.11
22269;BMP280;11303;50.772;19.670;2022-12-16T06:30:46;98142.38;;;-3.05
22269;BMP280;11303;50.772;19.670;2022-12-16T06:33:07;98142.50;;;-3.02
22269;BMP280;11303;50.772;19.670;2022-12-16T06:35:27;98139.59;;;-3.00
22269;BMP280;11303;50.772;19.670;2022-12-16T06:37:47;98142.31;;;-2.97
22269;BMP280;11303;50.772;19.670;2022-12-16T06:40:07;98143.84;;;-2.96
22269;BMP280;11303;50.772;19.670;2022-12-16T06:42:28;98142.00;;;-2.95
22269;BMP280;11303;50.772;19.670;2022-12-16T06:44:48;98132.84;;;-2.93
22269;BMP280;11303;50.772;19.670;2022-12-16T06:47:08;98125.47;;;-2.91
22269;BMP280;11303;50.772;19.670;2022-12-16T06:49:27;98136.03;;;-2.87
22269;BMP280;11303;50.772;19.670;2022-12-16T06:51:47;98121.97;;;-2.86
22269;BMP280;11303;50.772;19.670;2022-12-16T06:54:07;98118.00;;;-2.84
22269;BMP280;11303;50.772;19.670;2022-12-16T06:56:28;98115.09;;;-2.82
22269;BMP280;11303;50.772;19.670;2022-12-16T06:58:48;98119.34;;;-2.78
22269;BMP280;11303;50.772;19.670;2022-12-16T07:01:08;98122.34;;;-2.76
22269;BMP280;11303;50.772;19.670;2022-12-16T07:03:28;98127.53;;;-2.76
22269;BMP280;11303;50.772;19.670;2022-12-16T07:05:52;98130.59;;;-2.74
22269;BMP280;11303;50.772;19.670;2022-12-16T07:08:12;98134.06;;;-2.70
22269;BMP280;11303;50.772;19.670;2022-12-16T07:10:34;98125.31;;;-2.65
22269;BMP280;11303;50.772;19.670;2022-12-16T07:12:58;98126.53;;;-2.63
22269;BMP280;11303;50.772;19.670;2022-12-16T07:15:19;98117.84;;;-2.58
22269;BMP280;11303;50.772;19.670;2022-12-16T07:17:39;98108.97;;;-2.57
22269;BMP280;11303;50.772;19.670;2022-12-16T07:19:59;98122.72;;;-2.57
22269;BMP280;11303;50.772;19.670;2022-12-16T07:22:19;98120.34;;;-2.50
22269;BMP280;11303;50.772;19.670;2022-12-16T07:24:43;98122.94;;;-2.50
22269;BMP280;11303;50.772;19.670;2022-12-16T07:27:03;98115.91;;;-2.49
22269;BMP280;11303;50.772;19.670;2022-12-16T07:29:22;98114.84;;;-2.48
22269;BMP280;11303;50.772;19.670;2022-12-16T07:31:42;98110.72;;;-2.49
22269;BMP280;11303;50.772;19.670;2022-12-16T07:34:02;98106.59;;;-2.50
22269;BMP280;11303;50.772;19.670;2022-12-16T07:36:22;98107.81;;;-2.48
22269;BMP280;11303;50.772;19.670;2022-12-16T07:38:42;98113.44;;;-2.46
22269;BMP280;11303;50.772;19.670;2022-12-16T07:41:02;98122.31;;;-2.47
22269;BMP280;11303;50.772;19.670;2022-12-16T07:43:22;98119.41;;;-2.45
22269;BMP280;11303;50.772;19.670;2022-12-16T07:45:42;98122.00;;;-2.45
22269;BMP280;11303;50.772;19.670;2022-12-16T07:48:03;98130.22;;;-2.43
22269;BMP280;11303;50.772;19.670;2022-12-16T07:50:22;98125.78;;;-2.43
22269;BMP280;11303;50.772;19.670;2022-12-16T07:52:43;98134.44;;;-2.39
22269;BMP280;11303;50.772;19.670;2022-12-16T07:55:03;98122.09;;;-2.42
22269;BMP280;11303;50.772;19.670;2022-12-16T07:57:23;98111.84;;;-2.38
22269;BMP280;11303;50.772;19.670;2022-12-16T07:59:43;98118.88;;;-2.39
22269;BMP280;11303;50.772;19.670;2022-12-16T08:02:03;98099.81;;;-2.43
22269;BMP280;11303;50.772;19.670;2022-12-16T08:04:24;98088.81;;;-2.40
22269;BMP280;11303;50.772;19.670;2022-12-16T08:06:44;98087.94;;;-2.44
22269;BMP280;11303;50.772;19.670;2022-12-16T08:09:04;98071.09;;;-2.38
22269;BMP280;11303;50.772;19.670;2022-12-16T08:11:24;98063.06;;;-2.33
22269;BMP280;11303;50.772;19.670;2022-12-16T08:13:44;98066.25;;;-2.27
22269;BMP280;11303;50.772;19.670;2022-12-16T08:16:04;98068.66;;;-2.22
22269;BMP280;11303;50.772;19.670;2022-12-16T08:18:24;98077.66;;;-2.20
22269;BMP280;11303;50.772;19.670;2022-12-16T08:20:44;98080.59;;;-2.09
22269;BMP280;11303;50.772;19.670;2022-12-16T08:23:05;98082.66;;;-2.03
22269;BMP280;11303;50.772;19.670;2022-12-16T08:25:25;98074.53;;;-2.01
22269;BMP280;11303;50.772;19.670;2022-12-16T08:27:45;98080.94;;;-1.99
22269;BMP280;11303;50.772;19.670;2022-12-16T08:30:06;98086.69;;;-1.93
22269;BMP280;11303;50.772;19.670;2022-12-16T08:32:26;98096.97;;;-1.85
22269;BMP280;11303;50.772;19.670;2022-12-16T08:34:46;98096.16;;;-1.76
22269;BMP280;11303;50.772;19.670;2022-12-16T08:37:11;98088.78;;;-1.74
22269;BMP280;11303;50.772;19.670;2022-12-16T08:39:31;98097.00;;;-1.72
22269;BMP280;11303;50.772;19.670;2022-12-16T08:42:11;98084.03;;;-1.72
22269;BMP280;11303;50.772;19.670;2022-12-16T08:44:31;98081.63;;;-1.65
22269;BMP280;11303;50.772;19.670;2022-12-16T08:46:51;98090.84;;;-1.56
22269;BMP280;11303;50.772;19.670;2022-12-16T08:49:11;98068.44;;;-1.60
22269;BMP280;11303;50.772;19.670;2022-12-16T08:51:31;98079.59;;;-1.60
22269;BMP280;11303;50.772;19.670;2022-12-16T08:53:51;98056.09;;;-1.63
22269;BMP280;11303;50.772;19.670;2022-12-16T08:56:11;98073.41;;;-1.67
22269;BMP280;11303;50.772;19.670;2022-12-16T08:58:32;98067.34;;;-1.71
22269;BMP280;11303;50.772;19.670;2022-12-16T09:00:52;98070.56;;;-1.74
22269;BMP280;11303;50.772;19.670;2022-12-16T09:03:13;98064.97;;;-1.76
22269;BMP280;11303;50.772;19.670;2022-12-16T09:05:33;98077.31;;;-1.73
22269;BMP280;11303;50.772;19.670;2022-12-16T09:07:58;98080.00;;;-1.70
22269;BMP280;11303;50.772;19.670;2022-12-16T09:10:18;98082.94;;;-1.71
22269;BMP280;11303;50.772;19.670;2022-12-16T09:12:41;98079.03;;;-1.53
22269;BMP280;11303;50.772;19.670;2022-12-16T09:15:01;98078.38;;;-1.38
22269;BMP280;11303;50.772;19.670;2022-12-16T09:17:21;98092.03;;;-1.41
22269;BMP280;11303;50.772;19.670;2022-12-16T09:19:41;98085.31;;;-1.42
22269;BMP280;11303;50.772;19.670;2022-12-16T09:22:01;98079.28;;;-1.46
22269;BMP280;11303;50.772;19.670;2022-12-16T09:24:21;98080.97;;;-1.38
22269;BMP280;11303;50.772;19.670;2022-12-16T09:26:40;98080.00;;;-1.34
22269;BMP280;11303;50.772;19.670;2022-12-16T09:29:00;98088.38;;;-1.40
22269;BMP280;11303;50.772;19.670;2022-12-16T09:31:20;98096.69;;;-1.35
22269;BMP280;11303;50.772;19.670;2022-12-16T09:33:40;98089.03;;;-1.43
22269;BMP280;11303;50.772;19.670;2022-12-16T09:36:00;98082.53;;;-1.49
22269;BMP280;11303;50.772;19.670;2022-12-16T09:38:20;98084.47;;;-1.58
22269;BMP280;11303;50.772;19.670;2022-12-16T09:40:41;98087.06;;;-1.58
22269;BMP280;11303;50.772;19.670;2022-12-16T09:43:12;98087.28;;;-1.63
22269;BMP280;11303;50.772;19.670;2022-12-16T09:48:23;98083.25;;;-1.73
22269;BMP280;11303;50.772;19.670;2022-12-16T09:50:54;98080.88;;;-1.66
22269;BMP280;11303;50.772;19.670;2022-12-16T09:53:19;98089.66;;;-1.58
22269;BMP280;11303;50.772;19.670;2022-12-16T09:55:41;98076.88;;;-1.51
22269;BMP280;11303;50.772;19.670;2022-12-16T09:58:03;98077.72;;;-1.47
22269;BMP280;11303;50.772;19.670;2022-12-16T10:00:26;98080.97;;;-1.38
22269;BMP280;11303;50.772;19.670;2022-12-16T10:02:48;98086.41;;;-1.43
22269;BMP280;11303;50.772;19.670;2022-12-16T10:05:14;98091.63;;;-1.31
22269;BMP280;11303;50.772;19.670;2022-12-16T10:07:37;98098.56;;;-1.23
22269;BMP280;11303;50.772;19.670;2022-12-16T10:10:29;98102.44;;;-1.29
22269;BMP280;11303;50.772;19.670;2022-12-16T10:17:45;98098.09;;;-1.25
22269;BMP280;11303;50.772;19.670;2022-12-16T10:25:20;98107.44;;;-1.24
22269;BMP280;11303;50.772;19.670;2022-12-16T10:27:44;98107.25;;;-1.31
22269;BMP280;11303;50.772;19.670;2022-12-16T10:30:11;98103.56;;;-1.30
22269;BMP280;11303;50.772;19.670;2022-12-16T10:32:40;98093.66;;;-1.37
22269;BMP280;11303;50.772;19.670;2022-12-16T10:35:02;98106.66;;;-1.49
22269;BMP280;11303;50.772;19.670;2022-12-16T10:37:37;98098.31;;;-1.54
22269;BMP280;11303;50.772;19.670;2022-12-16T10:39:59;98101.56;;;-1.57
22269;BMP280;11303;50.772;19.670;2022-12-16T10:42:32;98096.81;;;-1.67
22269;BMP280;11303;50.772;19.670;2022-12-16T10:44:58;98090.06;;;-1.68
22269;BMP280;11303;50.772;19.670;2022-12-16T10:47:20;98087.47;;;-1.68
22269;BMP280;11303;50.772;19.670;2022-12-16T10:49:40;98087.59;;;-1.65
22269;BMP280;11303;50.772;19.670;2022-12-16T10:52:00;98087.91;;;-1.66
22269;BMP280;11303;50.772;19.670;2022-12-16T10:54:34;98086.31;;;-1.59
22269;BMP280;11303;50.772;19.670;2022-12-16T10:57:02;98087.72;;;-1.49
22269;BMP280;11303;50.772;19.670;2022-12-16T10:59:33;98088.56;;;-1.33
22269;BMP280;11303;50.772;19.670;2022-12-16T11:01:56;98088.78;;;-1.38
22269;BMP280;11303;50.772;19.670;2022-12-16T11:04:34;98078.81;;;-1.36
22269;BMP280;11303;50.772;19.670;2022-12-16T11:06:56;98087.50;;;-1.20
22269;BMP280;11303;50.772;19.670;2022-12-16T11:09:27;98086.38;;;-1.07
22269;BMP280;11303;50.772;19.670;2022-12-16T11:11:47;98088.56;;;-0.70
22269;BMP280;11303;50.772;19.670;2022-12-16T11:16:34;98088.09;;;-0.32
22269;BMP280;11303;50.772;19.670;2022-12-16T11:18:56;98085.09;;;-0.46
22269;BMP280;11303;50.772;19.670;2022-12-16T11:21:19;98079.09;;;-0.62
22269;BMP280;11303;50.772;19.670;2022-12-16T11:23:40;98080.44;;;-0.68
22269;BMP280;11303;50.772;19.670;2022-12-16T11:26:09;98098.56;;;-0.72
22269;BMP280;11303;50.772;19.670;2022-12-16T11:28:36;98103.56;;;-0.79
22269;BMP280;11303;50.772;19.670;2022-12-16T11:31:01;98100.06;;;-0.71
22269;BMP280;11303;50.772;19.670;2022-12-16T11:33:23;98101.44;;;-0.61
22269;BMP280;11303;50.772;19.670;2022-12-16T11:35:47;98088.00;;;-0.63
22269;BMP280;11303;50.772;19.670;2022-12-16T11:38:17;98075.84;;;-0.59
22269;BMP280;11303;50.772;19.670;2022-12-16T11:40:39;98084.16;;;-0.54
22269;BMP280;11303;50.772;19.670;2022-12-16T11:43:01;98071.53;;;-0.40
22269;BMP280;11303;50.772;19.670;2022-12-16T11:45:22;98080.69;;;-0.18
22269;BMP280;11303;50.772;19.670;2022-12-16T11:47:48;98063.25;;;-0.30
22269;BMP280;11303;50.772;19.670;2022-12-16T11:50:14;98087.22;;;-0.24
22269;BMP280;11303;50.772;19.670;2022-12-16T11:52:36;98078.25;;;-0.39
22269;BMP280;11303;50.772;19.670;2022-12-16T11:55:03;98066.94;;;-0.58
22269;BMP280;11303;50.772;19.670;2022-12-16T11:57:51;98086.09;;;-0.78
22269;BMP280;11303;50.772;19.670;2022-12-16T12:00:14;98088.09;;;-0.87
22269;BMP280;11303;50.772;19.670;2022-12-16T12:02:51;98109.13;;;-0.92
22269;BMP280;11303;50.772;19.670;2022-12-16T12:05:14;98105.53;;;-0.88
22269;BMP280;11303;50.772;19.670;2022-12-16T12:07:41;98116.50;;;-0.94
22269;BMP280;11303;50.772;19.670;2022-12-16T12:10:27;98107.25;;;-0.80
22269;BMP280;11303;50.772;19.670;2022-12-16T12:13:03;98099.09;;;-0.66
22269;BMP280;11303;50.772;19.670;2022-12-16T12:15:33;98100.78;;;-0.58
22269;BMP280;11303;50.772;19.670;2022-12-16T12:17:58;98097.75;;;-0.60
22269;BMP280;11303;50.772;19.670;2022-12-16T12:23:05;98110.84;;;-0.84
22269;BMP280;11303;50.772;19.670;2022-12-16T12:25:51;98115.88;;;-1.03
22269;BMP280;11303;50.772;19.670;2022-12-16T12:31:01;98137.34;;;-1.30
22269;BMP280;11303;50.772;19.670;2022-12-16T12:33:47;98145.59;;;-1.28
22269;BMP280;11303;50.772;19.670;2022-12-16T12:36:21;98143.94;;;-1.21
22269;BMP280;11303;50.772;19.670;2022-12-16T12:42:19;98140.38;;;-1.16
22269;BMP280;11303;50.772;19.670;2022-12-16T12:47:37;98167.34;;;-1.21
22269;BMP280;11303;50.772;19.670;2022-12-16T12:50:09;98169.66;;;-1.31
22269;BMP280;11303;50.772;19.670;2022-12-16T12:53:06;98165.06;;;-1.34
22269;BMP280;11303;50.772;19.670;2022-12-16T12:55:51;98161.25;;;-1.37
22269;BMP280;11303;50.772;19.670;2022-12-16T12:58:13;98168.31;;;-1.37
22269;BMP280;11303;50.772;19.670;2022-12-16T13:00:42;98166.25;;;-1.44
22269;BMP280;11303;50.772;19.670;2022-12-16T13:03:12;98184.78;;;-1.45
22269;BMP280;11303;50.772;19.670;2022-12-16T13:05:36;98182.38;;;-1.50
22269;BMP280;11303;50.772;19.670;2022-12-16T13:11:11;98179.34;;;-1.52
22269;BMP280;11303;50.772;19.670;2022-12-16T13:13:35;98169.69;;;-1.64
22269;BMP280;11303;50.772;19.670;2022-12-16T13:15:56;98180.75;;;-1.55
22269;BMP280;11303;50.772;19.670;2022-12-16T13:18:21;98174.69;;;-1.59
22269;BMP280;11303;50.772;19.670;2022-12-16T13:20:41;98193.97;;;-1.60
22269;BMP280;11303;50.772;19.670;2022-12-16T13:23:26;98197.31;;;-1.59
22269;BMP280;11303;50.772;19.670;2022-12-16T13:25:51;98186.91;;;-1.59
22269;BMP280;11303;50.772;19.670;2022-12-16T13:28:19;98195.66;;;-1.64
22269;BMP280;11303;50.772;19.670;2022-12-16T13:30:40;98199.91;;;-1.59
22269;BMP280;11303;50.772;19.670;2022-12-16T13:33:29;98198.06;;;-1.59
22269;BMP280;11303;50.772;19.670;2022-12-16T13:35:54;98208.16;;;-1.57
22269;BMP280;11303;50.772;19.670;2022-12-16T13:38:20;98216.72;;;-1.57
22269;BMP280;11303;50.772;19.670;2022-12-16T13:41:01;98229.81;;;-1.53
22269;BMP280;11303;50.772;19.670;2022-12-16T13:43:52;98230.47;;;-1.56
22269;BMP280;11303;50.772;19.670;2022-12-16T13:46:14;98231.56;;;-1.57
22269;BMP280;11303;50.772;19.670;2022-12-16T13:48:37;98229.78;;;-1.65
22269;BMP280;11303;50.772;19.670;2022-12-16T13:50:58;98227.72;;;-1.72
22269;BMP280;11303;50.772;19.670;2022-12-16T13:53:21;98231.06;;;-1.71
22269;BMP280;11303;50.772;19.670;2022-12-16T13:55:54;98231.59;;;-1.78
22269;BMP280;11303;50.772;19.670;2022-12-16T13:58:25;98229.19;;;-1.83